Time;durP1;ratioP1;P1;durP2;ratioP2;P2;SDS_P1;SDS_P2;PMS_P1;PMS_P2;Temp;Humidity;BMP_temperature;BMP_pressure;BME280_temperature;BME280_humidity;BME280_pressure;Samples;Min_cycle;Max_cycle;Signal;HPM_P1;HPM_P2
2021/04/26 00:01:28;;;;;;;2.05;1.08;;;2.90;71.10;;;;;;5027959;28;20380;-45
2021/04/26 00:03:54;;;;;;;2.17;1.25;;;2.90;69.30;;;;;;5027878;28;20049;-45
2021/04/26 00:06:19;;;;;;;5.20;1.70;;;3.00;68.70;;;;;;5028294;28;20423;-45
2021/04/26 00:08:45;;;;;;;2.15;1.02;;;3.00;69.00;;;;;;5026857;28;20057;-45
2021/04/26 00:11:10;;;;;;;3.08;1.50;;;2.90;71.50;;;;;;5026975;28;20021;-45
2021/04/26 00:13:36;;;;;;;1.65;1.05;;;2.80;71.40;;;;;;5027361;28;20018;-45
2021/04/26 00:16:02;;;;;;;1.27;0.90;;;2.70;71.20;;;;;;5027983;28;20108;-47
2021/04/26 00:18:27;;;;;;;5.03;1.77;;;2.70;70.60;;;;;;5027085;28;20037;-46
2021/04/26 00:20:53;;;;;;;2.63;1.23;;;2.70;70.90;;;;;;5026135;28;20021;-45
2021/04/26 00:23:18;;;;;;;1.55;1.05;;;2.70;69.80;;;;;;5028154;28;20018;-44
2021/04/26 00:25:44;;;;;;;1.67;1.00;;;2.70;69.20;;;;;;5027399;28;20063;-55
2021/04/26 00:28:09;;;;;;;1.85;1.00;;;2.60;70.20;;;;;;5027725;28;20510;-45
2021/04/26 00:30:35;;;;;;;3.45;1.58;;;2.60;69.40;;;;;;5027183;28;20057;-44
2021/04/26 00:33:01;;;;;;;1.33;1.00;;;2.50;71.90;;;;;;5028301;28;20268;-44
2021/04/26 00:35:27;;;;;;;1.42;0.98;;;2.50;72.10;;;;;;5027684;28;20080;-46
2021/04/26 00:37:53;;;;;;;3.65;1.33;;;2.40;71.90;;;;;;5031198;28;20109;-48
2021/04/26 00:40:20;;;;;;;1.67;1.17;;;2.40;72.70;;;;;;5031898;28;20533;-46
2021/04/26 00:42:46;;;;;;;6.30;1.50;;;2.30;75.70;;;;;;5013324;28;20022;-46
2021/04/26 00:45:15;;;;;;;1.45;1.00;;;2.20;74.50;;;;;;5011874;28;20499;-45
2021/04/26 00:47:42;;;;;;;2.95;0.90;;;2.20;75.30;;;;;;5030603;28;20044;-45
2021/04/26 00:50:12;;;;;;;2.58;1.30;;;2.20;81.10;;;;;;5030861;28;20017;-45
2021/04/26 00:52:38;;;;;;;1.33;0.90;;;2.10;78.20;;;;;;5031490;28;20084;-45
2021/04/26 00:55:05;;;;;;;1.13;0.90;;;2.10;83.00;;;;;;5030902;28;20491;-45
2021/04/26 00:57:31;;;;;;;1.63;1.10;;;2.10;83.00;;;;;;5028872;28;20071;-44
2021/04/26 00:59:56;;;;;;;0.90;0.77;;;2.00;84.40;;;;;;5030096;28;20030;-45
2021/04/26 01:02:24;;;;;;;1.85;1.10;;;2.00;88.70;;;;;;5025887;28;20087;-46
2021/04/26 01:04:50;;;;;;;1.33;1.02;;;2.00;89.30;;;;;;5011257;28;20037;-47
2021/04/26 01:07:16;;;;;;;2.17;1.20;;;2.00;90.90;;;;;;5022243;28;20075;-45
2021/04/26 01:09:42;;;;;;;1.45;1.00;;;1.90;90.80;;;;;;5029102;28;20029;-44
2021/04/26 01:12:46;;;;;;;2.53;1.20;;;1.90;90.80;;;;;;5031328;28;20391;-45
2021/04/26 01:15:23;;;;;;;2.92;1.70;;;1.90;92.70;;;;;;5017245;28;20065;-44
2021/04/26 01:17:55;;;;;;;1.90;1.23;;;1.80;92.50;;;;;;5023341;28;20029;-44
2021/04/26 01:20:47;;;;;;;2.40;0.95;;;1.80;92.30;;;;;;5030023;28;20095;-44
2021/04/26 01:23:47;;;;;;;1.77;1.20;;;1.80;94.80;;;;;;5031178;28;20029;-44
2021/04/26 01:26:36;;;;;;;1.13;1.00;;;1.80;94.70;;;;;;5031215;28;20029;-44
2021/04/26 01:29:28;;;;;;;1.63;1.00;;;1.70;94.00;;;;;;5030120;28;20029;-44
2021/04/26 01:32:18;;;;;;;2.13;1.20;;;1.70;92.30;;;;;;5011184;28;20026;-44
2021/04/26 01:34:46;;;;;;;1.03;0.80;;;1.80;92.30;;;;;;5011336;28;20166;-44
2021/04/26 01:37:13;;;;;;;2.35;1.15;;;1.80;92.50;;;;;;5021066;28;20375;-44
2021/04/26 01:39:40;;;;;;;1.58;1.05;;;1.80;92.30;;;;;;5027988;28;20037;-44
2021/04/26 01:42:06;;;;;;;1.48;1.00;;;1.80;93.20;;;;;;5030582;28;20060;-43
2021/04/26 01:44:33;;;;;;;1.45;1.00;;;1.70;92.70;;;;;;5030059;28;20415;-44
2021/04/26 01:46:59;;;;;;;1.75;1.00;;;1.80;93.40;;;;;;5030210;28;20080;-43
2021/04/26 01:49:25;;;;;;;4.90;1.30;;;1.70;97.20;;;;;;5024092;28;20026;-43
2021/04/26 01:51:52;;;;;;;1.77;0.93;;;1.80;92.10;;;;;;5010345;28;20026;-43
2021/04/26 01:54:18;;;;;;;1.60;0.85;;;1.70;91.50;;;;;;5010630;28;20542;-44
2021/04/26 01:56:44;;;;;;;1.05;0.80;;;1.70;92.60;;;;;;5010711;28;20495;-44
2021/04/26 01:59:11;;;;;;;1.08;0.90;;;1.60;93.10;;;;;;5016515;28;20030;-44
2021/04/26 02:01:38;;;;;;;1.95;1.17;;;1.60;95.50;;;;;;5010863;28;20077;-44
2021/04/26 02:04:06;;;;;;;1.88;0.68;;;1.60;96.30;;;;;;5010442;28;20034;-45
2021/04/26 02:06:32;;;;;;;2.03;1.05;;;1.50;95.50;;;;;;5022120;28;20028;-44
2021/04/26 02:09:00;;;;;;;4.93;1.23;;;1.50;96.70;;;;;;5027680;28;20025;-45
2021/04/26 02:11:26;;;;;;;0.90;0.82;;;1.40;98.00;;;;;;5030198;28;20381;-45
2021/04/26 02:13:53;;;;;;;0.82;0.80;;;1.40;97.30;;;;;;5029381;28;20091;-44
2021/04/26 02:16:19;;;;;;;1.83;0.80;;;1.40;95.90;;;;;;5030052;28;20021;-45
2021/04/26 02:18:45;;;;;;;1.45;1.13;;;1.50;93.50;;;;;;5028307;28;20051;-44
2021/04/26 02:21:11;;;;;;;4.90;1.05;;;1.50;92.60;;;;;;5030107;28;20018;-44
2021/04/26 02:23:37;;;;;;;1.23;1.05;;;1.50;92.50;;;;;;5029560;28;20039;-45
2021/04/26 02:26:03;;;;;;;0.70;0.70;;;1.50;92.50;;;;;;5029914;28;20052;-45
2021/04/26 02:28:29;;;;;;;3.35;1.05;;;1.50;92.40;;;;;;5028530;28;20026;-44
2021/04/26 02:30:56;;;;;;;2.00;1.00;;;1.40;93.40;;;;;;5029217;28;20147;-45
2021/04/26 02:33:32;;;;;;;1.48;0.90;;;1.40;95.30;;;;;;5030212;28;20112;-45
2021/04/26 02:36:12;;;;;;;1.02;1.00;;;1.30;95.10;;;;;;5029095;28;20017;-46
2021/04/26 02:38:42;;;;;;;1.58;0.95;;;1.30;94.10;;;;;;5029234;28;20025;-45
2021/04/26 02:41:11;;;;;;;1.52;1.02;;;1.30;95.80;;;;;;5029308;28;20037;-44
2021/04/26 02:43:45;;;;;;;1.63;1.10;;;1.30;98.80;;;;;;5028703;28;20133;-44
2021/04/26 02:46:13;;;;;;;1.65;1.40;;;1.30;99.90;;;;;;5029232;28;20474;-45
2021/04/26 02:48:42;;;;;;;0.90;0.80;;;1.30;99.90;;;;;;5028531;28;20442;-44
2021/04/26 02:51:07;;;;;;;2.58;1.55;;;1.30;99.90;;;;;;5028501;28;20057;-46
2021/04/26 02:53:34;;;;;;;3.53;1.35;;;1.30;99.90;;;;;;5028515;28;20045;-45
2021/04/26 02:56:09;;;;;;;2.70;1.63;;;1.20;99.90;;;;;;5029202;28;20027;-45
2021/04/26 02:58:35;;;;;;;2.33;1.50;;;1.20;99.90;;;;;;5028322;28;20026;-44
2021/04/26 03:01:05;;;;;;;2.95;1.85;;;1.20;99.90;;;;;;5027256;28;20026;-44
2021/04/26 03:03:32;;;;;;;2.90;1.73;;;1.20;99.90;;;;;;5029257;28;20505;-44
2021/04/26 03:05:58;;;;;;;4.05;1.70;;;1.20;99.90;;;;;;5029041;28;20430;-47
2021/04/26 03:08:24;;;;;;;4.05;2.00;;;1.20;99.90;;;;;;5027730;28;20080;-45
2021/04/26 03:10:50;;;;;;;3.42;1.77;;;1.20;99.90;;;;;;5028607;28;20444;-44
2021/04/26 03:13:16;;;;;;;3.33;1.60;;;1.20;99.90;;;;;;5027754;28;20120;-45
2021/04/26 03:15:42;;;;;;;3.08;1.88;;;1.20;99.90;;;;;;5028675;28;20022;-46
2021/04/26 03:18:11;;;;;;;5.18;1.77;;;1.20;99.90;;;;;;5027564;28;20029;-43
2021/04/26 03:20:37;;;;;;;5.70;2.20;;;1.10;99.90;;;;;;5027425;28;20145;-46
2021/04/26 03:23:02;;;;;;;4.32;1.60;;;1.20;99.90;;;;;;5026917;28;20029;-44
2021/04/26 03:25:28;;;;;;;3.38;1.45;;;1.10;99.90;;;;;;5028931;28;20109;-45
2021/04/26 03:27:55;;;;;;;2.25;1.35;;;1.10;99.90;;;;;;5028162;28;20053;-45
2021/04/26 03:30:24;;;;;;;2.95;1.60;;;1.10;99.90;;;;;;5028438;28;20029;-43
2021/04/26 03:32:50;;;;;;;4.18;1.85;;;1.00;99.90;;;;;;5028520;28;20091;-44
2021/04/26 03:35:18;;;;;;;1.98;1.40;;;1.00;99.90;;;;;;5028665;28;20026;-44
2021/04/26 03:37:53;;;;;;;5.15;2.17;;;1.00;99.90;;;;;;5027232;28;20311;-44
2021/04/26 03:40:24;;;;;;;5.28;2.05;;;0.90;99.90;;;;;;5028524;28;20027;-44
2021/04/26 03:42:58;;;;;;;3.08;1.83;;;0.90;99.90;;;;;;5027594;28;20120;-44
2021/04/26 03:45:26;;;;;;;5.30;1.75;;;0.90;99.90;;;;;;5028534;28;20029;-45
2021/04/26 03:47:52;;;;;;;4.57;1.42;;;0.90;99.90;;;;;;5026813;28;20029;-44
2021/04/26 03:50:19;;;;;;;2.92;1.67;;;0.80;99.90;;;;;;5028597;28;20036;-44
2021/04/26 03:52:45;;;;;;;5.15;1.95;;;0.90;99.90;;;;;;5027535;28;20119;-45
2021/04/26 03:55:13;;;;;;;3.88;1.75;;;0.80;99.90;;;;;;5028001;28;20026;-44
2021/04/26 03:57:40;;;;;;;2.97;2.03;;;0.90;99.90;;;;;;5026952;28;20503;-45
2021/04/26 04:00:08;;;;;;;5.00;2.20;;;0.90;99.90;;;;;;5027184;28;20464;-44
2021/04/26 04:02:34;;;;;;;4.60;1.63;;;0.90;99.90;;;;;;5026035;28;20029;-44
2021/04/26 04:05:00;;;;;;;1.95;1.23;;;0.80;99.90;;;;;;5027205;28;20034;-44
2021/04/26 04:07:26;;;;;;;5.40;1.45;;;0.90;99.90;;;;;;5026049;28;20057;-44
2021/04/26 04:09:53;;;;;;;3.33;1.38;;;0.80;99.90;;;;;;5029465;28;20022;-44
2021/04/26 04:12:19;;;;;;;3.53;1.40;;;0.80;99.90;;;;;;5029427;28;20122;-45
2021/04/26 04:14:45;;;;;;;2.78;1.40;;;0.70;99.90;;;;;;5031808;28;20040;-44
2021/04/26 04:17:12;;;;;;;5.18;1.67;;;0.70;99.90;;;;;;5029243;28;20398;-44
2021/04/26 04:19:37;;;;;;;2.35;1.40;;;0.80;99.90;;;;;;5030183;28;20029;-44
2021/04/26 04:22:04;;;;;;;6.90;1.40;;;0.70;99.90;;;;;;5030202;28;20094;-44
2021/04/26 04:24:29;;;;;;;3.88;1.75;;;0.70;99.90;;;;;;5044111;28;20025;-46
2021/04/26 04:26:55;;;;;;;3.05;1.60;;;0.70;99.90;;;;;;5031712;28;20116;-45
2021/04/26 04:29:21;;;;;;;4.57;1.85;;;0.80;99.90;;;;;;5037147;28;20497;-45
2021/04/26 04:31:47;;;;;;;6.53;1.70;;;0.80;99.90;;;;;;5031970;28;20144;-44
2021/04/26 04:34:13;;;;;;;8.02;1.65;;;0.80;99.90;;;;;;5031876;28;20022;-44
2021/04/26 04:36:38;;;;;;;3.78;1.45;;;0.80;99.90;;;;;;5027172;28;20033;-44
2021/04/26 04:39:04;;;;;;;5.53;1.35;;;0.80;99.90;;;;;;5014262;28;20025;-44
2021/04/26 04:41:31;;;;;;;3.25;1.80;;;0.80;99.90;;;;;;5030207;28;20504;-43
2021/04/26 04:43:57;;;;;;;6.65;1.50;;;0.90;99.90;;;;;;5030426;28;20064;-44
2021/04/26 04:46:24;;;;;;;4.65;1.55;;;0.90;99.90;;;;;;5027554;28;20116;-44
2021/04/26 04:48:49;;;;;;;2.88;1.40;;;1.00;99.90;;;;;;5028378;28;20033;-45
2021/04/26 04:51:15;;;;;;;4.68;1.50;;;1.10;99.90;;;;;;5030380;28;20387;-45
2021/04/26 04:53:40;;;;;;;3.00;1.73;;;1.10;99.90;;;;;;5029550;28;20034;-45
2021/04/26 04:56:06;;;;;;;5.97;2.15;;;1.20;99.90;;;;;;5030561;28;20028;-44
2021/04/26 04:58:31;;;;;;;3.95;1.20;;;1.30;99.90;;;;;;5030832;28;20536;-45
2021/04/26 05:00:58;;;;;;;3.97;1.50;;;1.30;99.70;;;;;;5031467;28;20022;-44
2021/04/26 05:03:23;;;;;;;3.10;1.40;;;1.40;99.30;;;;;;5030573;28;20069;-47
2021/04/26 05:05:49;;;;;;;2.17;1.20;;;1.50;99.90;;;;;;5030793;28;20061;-47
2021/04/26 05:08:14;;;;;;;5.93;1.60;;;1.50;99.80;;;;;;5029548;28;20108;-43
2021/04/26 05:10:40;;;;;;;7.15;1.88;;;1.60;98.90;;;;;;5029756;28;20021;-45
2021/04/26 05:13:05;;;;;;;3.17;1.77;;;1.70;97.40;;;;;;5030120;28;20475;-45
2021/04/26 05:15:31;;;;;;;3.08;1.30;;;1.80;96.50;;;;;;5029893;28;20022;-45
2021/04/26 05:17:57;;;;;;;3.10;1.45;;;1.80;95.80;;;;;;5030355;28;20111;-45
2021/04/26 05:20:22;;;;;;;2.70;1.50;;;2.00;95.20;;;;;;5030394;28;20387;-44
2021/04/26 05:22:48;;;;;;;2.13;1.48;;;2.00;94.90;;;;;;5028177;28;20083;-45
2021/04/26 05:25:14;;;;;;;3.80;1.50;;;2.10;95.50;;;;;;5024859;28;20025;-44
2021/04/26 05:27:41;;;;;;;3.20;1.70;;;2.30;95.70;;;;;;5020054;28;20040;-45
2021/04/26 05:30:09;;;;;;;4.53;2.10;;;2.30;96.40;;;;;;5029638;28;20071;-45
2021/04/26 05:32:35;;;;;;;3.65;1.50;;;2.50;93.00;;;;;;5028571;28;20498;-45
2021/04/26 05:35:01;;;;;;;1.95;1.35;;;2.60;92.50;;;;;;5030821;28;20046;-45
2021/04/26 05:37:26;;;;;;;5.28;2.35;;;2.60;91.90;;;;;;5029169;28;20121;-46
2021/04/26 05:39:51;;;;;;;2.80;1.05;;;2.80;92.20;;;;;;5028886;28;20032;-44
2021/04/26 05:42:17;;;;;;;2.05;1.52;;;2.90;91.20;;;;;;5030048;28;20049;-46
2021/04/26 05:44:43;;;;;;;2.85;1.92;;;3.00;91.00;;;;;;5030213;28;20025;-44
2021/04/26 05:47:08;;;;;;;3.45;1.70;;;3.00;90.30;;;;;;5028982;28;20033;-44
2021/04/26 05:49:34;;;;;;;3.00;1.50;;;2.90;86.80;;;;;;5027708;28;20087;-44
2021/04/26 05:51:59;;;;;;;2.97;1.30;;;2.90;87.90;;;;;;5027787;28;20036;-44
2021/04/26 05:54:25;;;;;;;2.65;1.45;;;3.00;85.50;;;;;;5029492;28;20026;-44
2021/04/26 05:56:51;;;;;;;2.85;1.05;;;3.00;85.90;;;;;;5019659;28;20040;-46
2021/04/26 05:59:16;;;;;;;3.00;1.25;;;3.10;85.20;;;;;;5025955;28;20427;-45
2021/04/26 06:01:42;;;;;;;5.13;1.40;;;3.10;84.50;;;;;;5028582;28;20051;-45
2021/04/26 06:04:07;;;;;;;1.85;1.13;;;3.10;84.50;;;;;;5028306;28;20101;-45
2021/04/26 06:06:33;;;;;;;4.93;1.50;;;3.10;84.30;;;;;;5028752;28;20060;-46
2021/04/26 06:08:58;;;;;;;2.72;1.50;;;3.10;89.80;;;;;;5028704;28;20098;-46
2021/04/26 06:11:24;;;;;;;3.80;1.77;;;3.10;86.50;;;;;;5029695;28;20048;-46
2021/04/26 06:13:50;;;;;;;2.72;1.27;;;3.20;83.90;;;;;;5028713;28;20044;-47
2021/04/26 06:16:16;;;;;;;3.70;1.42;;;3.20;82.80;;;;;;5028295;28;20029;-44
2021/04/26 06:18:42;;;;;;;7.60;1.42;;;3.20;82.30;;;;;;5028145;28;20033;-46
2021/04/26 06:21:07;;;;;;;5.13;1.58;;;3.30;82.40;;;;;;5029531;28;20021;-44
2021/04/26 06:23:33;;;;;;;2.75;1.42;;;3.40;82.30;;;;;;5028693;28;20109;-45
2021/04/26 06:25:58;;;;;;;2.70;1.25;;;3.50;85.10;;;;;;5028883;28;20030;-44
2021/04/26 06:28:25;;;;;;;4.85;1.63;;;3.60;82.60;;;;;;5028568;28;20025;-47
2021/04/26 06:30:50;;;;;;;4.43;1.38;;;3.70;82.40;;;;;;5029098;28;20033;-45
2021/04/26 06:33:16;;;;;;;3.20;1.17;;;3.70;84.00;;;;;;5027813;28;20072;-46
2021/04/26 06:35:47;;;;;;;4.85;0.98;;;3.90;84.50;;;;;;5028520;28;20479;-45
2021/04/26 06:38:13;;;;;;;3.35;1.38;;;3.90;84.00;;;;;;5039857;28;20029;-45
2021/04/26 06:40:41;;;;;;;1.33;1.23;;;4.10;85.30;;;;;;5049088;28;20056;-45
2021/04/26 06:43:08;;;;;;;1.95;1.40;;;4.20;83.50;;;;;;5049308;28;20207;-45
2021/04/26 06:45:34;;;;;;;3.67;1.38;;;4.40;83.00;;;;;;5026051;28;20494;-46
2021/04/26 06:47:59;;;;;;;3.78;1.60;;;4.60;81.90;;;;;;5025941;28;20028;-45
2021/04/26 06:50:26;;;;;;;3.35;0.98;;;4.90;78.60;;;;;;5028294;28;20021;-46
2021/04/26 06:52:56;;;;;;;2.05;1.05;;;5.10;77.00;;;;;;5028226;28;20061;-45
2021/04/26 06:55:23;;;;;;;5.07;1.53;;;5.40;76.40;;;;;;5028779;28;20386;-44
2021/04/26 06:57:48;;;;;;;2.65;1.20;;;5.70;75.20;;;;;;5027820;28;20029;-44
2021/04/26 07:00:15;;;;;;;2.50;1.40;;;6.00;71.10;;;;;;5028150;28;20033;-45
2021/04/26 07:02:41;;;;;;;3.35;1.23;;;6.30;70.70;;;;;;5028062;28;20029;-45
2021/04/26 07:05:08;;;;;;;4.25;1.50;;;6.50;68.80;;;;;;5027927;28;20302;-45
2021/04/26 07:07:34;;;;;;;1.98;1.15;;;6.70;65.70;;;;;;5027675;28;20465;-45
2021/04/26 07:09:59;;;;;;;2.22;0.85;;;7.00;65.80;;;;;;5028095;28;20189;-46
2021/04/26 07:12:25;;;;;;;5.45;1.20;;;7.10;64.60;;;;;;5028824;28;20033;-45
2021/04/26 07:14:50;;;;;;;3.35;1.23;;;7.40;63.40;;;;;;5027801;28;20061;-45
2021/04/26 07:17:16;;;;;;;3.88;1.10;;;7.60;64.70;;;;;;5027948;28;20029;-45
2021/04/26 07:19:42;;;;;;;7.50;1.45;;;7.80;64.10;;;;;;5023554;28;20030;-45
2021/04/26 07:22:07;;;;;;;4.40;1.20;;;8.00;62.30;;;;;;5017293;28;20109;-46
2021/04/26 07:24:33;;;;;;;5.05;1.55;;;8.20;62.50;;;;;;5028586;28;20029;-46
2021/04/26 07:26:59;;;;;;;6.15;1.48;;;8.30;62.10;;;;;;5028422;28;20026;-47
2021/04/26 07:29:24;;;;;;;4.32;1.20;;;8.40;61.00;;;;;;5028037;28;20053;-46
2021/04/26 07:31:50;;;;;;;2.45;1.33;;;8.70;59.30;;;;;;5028112;28;20110;-46
2021/04/26 07:34:15;;;;;;;6.30;1.40;;;8.80;57.50;;;;;;5028605;28;20112;-47
2021/04/26 07:36:41;;;;;;;6.80;1.58;;;9.10;56.60;;;;;;5028850;28;20029;-48
2021/04/26 07:39:07;;;;;;;4.47;1.13;;;9.20;56.60;;;;;;5027143;28;20077;-46
2021/04/26 07:41:33;;;;;;;2.17;1.08;;;9.40;57.00;;;;;;5028973;28;20177;-46
2021/04/26 07:43:58;;;;;;;3.90;1.40;;;9.50;55.90;;;;;;5027675;28;20284;-46
2021/04/26 07:46:24;;;;;;;4.97;1.80;;;9.70;55.10;;;;;;5027878;28;20094;-47
2021/04/26 07:48:49;;;;;;;3.13;1.33;;;9.70;54.60;;;;;;5027977;28;20044;-47
2021/04/26 07:51:15;;;;;;;13.18;1.70;;;9.80;55.80;;;;;;5028392;28;20026;-46
2021/04/26 07:53:42;;;;;;;2.95;1.05;;;9.90;56.10;;;;;;5027750;28;20434;-47
2021/04/26 07:56:07;;;;;;;1.33;0.90;;;10.10;55.20;;;;;;5028406;28;20033;-48
2021/04/26 07:58:33;;;;;;;3.13;0.82;;;10.10;54.60;;;;;;5026271;28;20112;-47
2021/04/26 08:00:59;;;;;;;1.85;1.00;;;10.50;52.30;;;;;;5028262;28;20538;-48
2021/04/26 08:03:24;;;;;;;1.95;1.10;;;10.80;52.80;;;;;;5027717;28;20044;-46
2021/04/26 08:05:52;;;;;;;1.42;0.93;;;11.00;50.70;;;;;;5028080;28;20156;-46
2021/04/26 08:08:18;;;;;;;5.10;1.17;;;11.40;50.70;;;;;;5026999;28;20036;-46
2021/04/26 08:10:43;;;;;;;4.57;1.15;;;11.70;52.00;;;;;;5027403;28;20276;-46
2021/04/26 08:13:09;;;;;;;4.00;1.13;;;12.10;49.80;;;;;;5028555;28;20028;-46
2021/04/26 08:15:34;;;;;;;2.17;0.90;;;12.30;48.40;;;;;;5028684;28;20033;-48
2021/04/26 08:18:00;;;;;;;1.95;1.20;;;12.40;49.40;;;;;;5027044;28;20038;-46
2021/04/26 08:20:26;;;;;;;4.82;1.20;;;12.50;47.30;;;;;;5028422;28;20021;-48
2021/04/26 08:22:52;;;;;;;2.70;0.80;;;12.80;46.40;;;;;;5027579;28;20057;-47
2021/04/26 08:25:18;;;;;;;3.30;1.00;;;13.00;43.50;;;;;;5025670;28;20056;-47
2021/04/26 08:27:44;;;;;;;2.95;0.90;;;13.30;41.90;;;;;;5027197;28;20483;-45
2021/04/26 08:30:11;;;;;;;2.83;0.70;;;13.40;43.00;;;;;;5028562;28;20091;-47
2021/04/26 08:32:36;;;;;;;4.30;0.90;;;13.60;40.60;;;;;;5027661;28;20022;-45
2021/04/26 08:35:03;;;;;;;4.10;0.82;;;13.60;42.40;;;;;;5027668;28;20036;-46
2021/04/26 08:37:29;;;;;;;1.45;0.70;;;13.30;41.60;;;;;;5025885;28;20053;-45
2021/04/26 08:39:54;;;;;;;2.47;0.77;;;13.80;41.30;;;;;;5027705;28;20244;-46
2021/04/26 08:42:20;;;;;;;3.28;0.90;;;14.00;39.90;;;;;;5028140;28;20107;-46
2021/04/26 08:44:46;;;;;;;3.03;0.90;;;14.40;41.00;;;;;;5027320;28;20109;-46
2021/04/26 08:47:12;;;;;;;2.80;1.02;;;14.90;39.60;;;;;;5027789;28;20112;-47
2021/04/26 08:49:37;;;;;;;2.95;0.85;;;14.90;40.60;;;;;;5027325;28;20029;-48
2021/04/26 08:52:08;;;;;;;5.10;1.25;;;14.60;42.10;;;;;;5027508;28;20075;-46
2021/04/26 08:54:33;;;;;;;2.78;0.75;;;14.30;42.70;;;;;;5027780;28;20112;-48
2021/04/26 08:56:59;;;;;;;2.58;1.20;;;14.30;41.10;;;;;;5029111;28;20113;-45
2021/04/26 08:59:25;;;;;;;2.92;1.13;;;14.90;40.60;;;;;;5030091;28;20475;-46
2021/04/26 09:02:01;;;;;;;4.07;0.93;;;14.60;40.00;;;;;;5031178;28;20559;-46
2021/04/26 09:04:26;;;;;;;2.67;0.68;;;15.00;40.10;;;;;;5030350;28;20037;-46
2021/04/26 09:07:02;;;;;;;2.63;0.90;;;15.30;39.20;;;;;;5031179;28;20029;-47
2021/04/26 09:09:36;;;;;;;1.35;1.13;;;15.70;40.50;;;;;;5028791;28;20045;-45
2021/04/26 09:12:02;;;;;;;0.93;0.88;;;16.10;37.90;;;;;;5028090;28;20107;-48
2021/04/26 09:14:58;;;;;;;6.03;1.40;;;16.50;39.30;;;;;;5030765;28;20021;-47
2021/04/26 09:17:33;;;;;;;3.75;1.65;;;17.50;39.70;;;;;;5030111;28;20037;-47
2021/04/26 09:20:17;;;;;;;1.85;1.02;;;17.80;36.20;;;;;;5029834;28;20515;-46
2021/04/26 09:22:54;;;;;;;2.53;1.00;;;18.10;36.40;;;;;;5031182;28;20037;-48
2021/04/26 09:25:35;;;;;;;3.38;1.40;;;19.10;33.60;;;;;;5030935;28;20057;-50
2021/04/26 09:28:00;;;;;;;;;;;19.00;33.10;;;;;;5030260;28;20212;-47
2021/04/26 09:30:56;;;;;;;2.15;1.20;;;19.40;32.00;;;;;;5030530;28;19923;-46
2021/04/26 09:33:38;;;;;;;4.00;1.17;;;18.00;34.60;;;;;;5030135;28;20095;-45
2021/04/26 09:36:22;;;;;;;3.45;1.30;;;17.50;36.00;;;;;;5010991;28;20029;-47
2021/04/26 09:38:53;;;;;;;4.60;1.20;;;18.00;35.60;;;;;;5023882;28;20314;-47
2021/04/26 09:41:25;;;;;;;;;;;19.80;34.60;;;;;;5030387;28;20021;-47
2021/04/26 09:44:08;;;;;;;3.88;1.30;;;20.10;33.40;;;;;;5030394;28;19936;-48
2021/04/26 09:46:41;;;;;;;5.22;1.15;;;21.50;34.40;;;;;;5027128;28;20029;-46
2021/04/26 09:49:21;;;;;;;3.88;1.25;;;23.70;30.60;;;;;;5029076;28;20033;-47
2021/04/26 09:51:59;;;;;;;3.05;1.08;;;24.60;28.30;;;;;;5029384;28;20061;-48
2021/04/26 09:54:33;;;;;;;4.93;1.60;;;24.80;27.00;;;;;;5029450;28;20109;-47
2021/04/26 09:56:59;;;;;;;1.70;1.20;;;23.90;28.20;;;;;;5028327;28;20029;-46
2021/04/26 09:59:26;;;;;;;1.65;1.23;;;23.20;29.00;;;;;;5029630;28;20463;-47
2021/04/26 10:01:52;;;;;;;2.67;1.60;;;21.90;28.00;;;;;;5029371;28;20036;-49
2021/04/26 10:04:17;;;;;;;2.75;1.38;;;21.00;29.60;;;;;;5029464;28;20446;-47
2021/04/26 10:06:43;;;;;;;2.53;1.55;;;19.80;30.90;;;;;;5029939;28;20036;-49
2021/04/26 10:09:10;;;;;;;1.77;1.13;;;18.90;32.40;;;;;;5027183;28;20072;-46
2021/04/26 10:11:37;;;;;;;3.88;1.50;;;18.00;33.40;;;;;;5030024;28;20021;-48
2021/04/26 10:14:10;;;;;;;2.65;1.20;;;17.90;33.00;;;;;;5028690;28;20022;-46
2021/04/26 10:17:00;;;;;;;1.80;1.52;;;17.30;34.90;;;;;;5029760;28;20048;-48
2021/04/26 10:19:39;;;;;;;3.10;1.40;;;17.20;35.00;;;;;;5029424;28;20026;-47
2021/04/26 10:22:05;;;;;;;2.15;1.38;;;16.90;36.70;;;;;;5028995;28;20052;-46
2021/04/26 10:24:32;;;;;;;2.75;1.45;;;17.10;37.40;;;;;;5027619;28;20041;-46
2021/04/26 10:27:08;;;;;;;2.00;1.20;;;17.10;35.80;;;;;;5028525;28;20025;-46
2021/04/26 10:29:36;;;;;;;5.22;1.73;;;16.40;36.00;;;;;;5029181;28;20021;-46
2021/04/26 10:32:08;;;;;;;3.47;1.38;;;16.40;37.10;;;;;;5029253;28;20053;-45
2021/04/26 10:34:43;;;;;;;1.27;1.10;;;17.50;36.60;;;;;;5029309;28;20033;-47
2021/04/26 10:37:15;;;;;;;2.45;1.30;;;18.00;33.40;;;;;;5028793;28;20475;-46
2021/04/26 10:40:05;;;;;;;1.55;1.20;;;17.80;33.40;;;;;;5029183;28;20446;-47
2021/04/26 10:42:33;;;;;;;5.63;1.75;;;18.70;35.20;;;;;;5028731;28;20032;-47
2021/04/26 10:44:59;;;;;;;1.63;1.50;;;19.80;31.40;;;;;;5028572;28;20487;-48
2021/04/26 10:47:27;;;;;;;2.67;1.40;;;19.90;30.80;;;;;;5028050;28;20021;-46
2021/04/26 10:50:02;;;;;;;3.05;1.60;;;20.10;33.70;;;;;;5029305;28;20067;-46
2021/04/26 10:52:31;;;;;;;3.78;1.35;;;19.70;32.30;;;;;;5027566;28;20024;-49
2021/04/26 10:54:59;;;;;;;2.45;1.67;;;20.10;32.80;;;;;;5028078;28;20021;-47
2021/04/26 10:57:32;;;;;;;2.72;1.30;;;20.80;32.50;;;;;;5025439;28;20116;-48
2021/04/26 11:00:23;;;;;;;4.32;2.10;;;22.10;32.00;;;;;;5028229;28;20110;-48
2021/04/26 11:02:50;;;;;;;2.50;1.40;;;22.90;28.70;;;;;;5026988;28;20391;-48
2021/04/26 11:05:31;;;;;;;4.38;1.45;;;22.00;29.50;;;;;;5028667;28;20029;-47
2021/04/26 11:08:05;;;;;;;3.38;1.33;;;22.50;29.40;;;;;;5025040;28;20064;-48
2021/04/26 11:10:40;;;;;;;4.78;1.65;;;22.80;28.40;;;;;;5026818;28;20360;-47
2021/04/26 11:13:31;;;;;;;2.88;1.10;;;23.80;27.30;;;;;;5028888;28;20025;-50
2021/04/26 11:16:08;;;;;;;1.92;1.40;;;24.00;26.00;;;;;;5029233;28;20018;-47
2021/04/26 11:18:35;;;;;;;2.15;1.50;;;24.20;26.30;;;;;;5026065;28;20052;-46
2021/04/26 11:21:02;;;;;;;4.70;2.00;;;23.10;26.70;;;;;;5027391;28;20029;-46
2021/04/26 11:23:48;;;;;;;2.55;1.58;;;20.60;28.10;;;;;;5029938;28;20026;-46
2021/04/26 11:26:22;;;;;;;2.38;1.42;;;19.20;30.40;;;;;;5027224;28;20031;-47
2021/04/26 11:29:02;;;;;;;2.92;1.58;;;18.20;31.70;;;;;;5027729;28;20040;-48
2021/04/26 11:31:43;;;;;;;4.22;1.38;;;18.60;33.20;;;;;;5027735;28;20025;-48
2021/04/26 11:34:14;;;;;;;2.00;1.40;;;19.50;30.40;;;;;;5029236;28;20132;-47
2021/04/26 11:37:02;;;;;;;3.70;1.48;;;19.90;33.80;;;;;;5027546;28;20036;-46
2021/04/26 11:39:29;;;;;;;2.33;1.50;;;19.60;36.40;;;;;;5028247;28;20029;-46
2021/04/26 11:41:56;;;;;;;2.65;1.30;;;21.00;32.10;;;;;;5029582;28;20049;-48
2021/04/26 11:44:30;;;;;;;2.15;1.50;;;21.80;29.30;;;;;;5026290;28;20448;-50
2021/04/26 11:47:10;;;;;;;1.50;1.27;;;21.50;30.00;;;;;;5026901;28;20029;-46
2021/04/26 11:49:42;;;;;;;4.00;1.38;;;21.90;31.80;;;;;;5029372;28;20591;-46
2021/04/26 11:52:22;;;;;;;2.88;1.40;;;22.40;30.80;;;;;;5029139;28;20091;-47
2021/04/26 11:54:59;;;;;;;;;;;23.30;29.40;;;;;;5027417;28;20022;-46
2021/04/26 11:57:25;;;;;;;4.25;1.35;;;22.80;27.10;;;;;;5027368;28;20290;-47
2021/04/26 11:59:55;;;;;;;1.70;1.33;;;21.80;30.00;;;;;;5023601;28;20033;-47
2021/04/26 12:02:43;;;;;;;2.75;1.70;;;22.40;29.50;;;;;;5027265;28;20033;-48
2021/04/26 12:05:10;;;;;;;4.30;1.70;;;22.30;29.50;;;;;;5024021;28;20025;-47
2021/04/26 12:07:36;;;;;;;5.65;1.52;;;21.30;28.40;;;;;;5026973;28;20045;-48
2021/04/26 12:10:21;;;;;;;3.08;1.70;;;19.80;29.00;;;;;;5028111;28;20017;-46
2021/04/26 12:12:47;;;;;;;1.45;1.30;;;18.00;29.70;;;;;;5025427;28;20037;-47
2021/04/26 12:15:18;;;;;;;3.08;1.45;;;16.90;30.90;;;;;;5026981;28;20127;-47
2021/04/26 12:17:47;;;;;;;2.60;1.60;;;16.80;31.60;;;;;;5027269;28;20502;-50
2021/04/26 12:20:13;;;;;;;2.53;1.52;;;17.30;33.60;;;;;;5027967;28;20060;-46
2021/04/26 12:22:39;;;;;;;4.50;1.95;;;17.60;37.00;;;;;;5027887;28;20124;-46
2021/04/26 12:25:07;;;;;;;2.50;1.70;;;17.50;33.00;;;;;;5027877;28;20036;-47
2021/04/26 12:27:33;;;;;;;4.80;1.70;;;16.80;33.70;;;;;;5027608;28;20109;-49
2021/04/26 12:30:11;;;;;;;2.80;1.58;;;17.40;35.00;;;;;;5028257;28;20025;-47
2021/04/26 12:32:36;;;;;;;3.30;1.30;;;17.70;35.90;;;;;;5038352;28;20106;-47
2021/04/26 12:35:05;;;;;;;2.42;1.33;;;17.80;36.10;;;;;;5036572;28;20232;-46
2021/04/26 12:37:36;;;;;;;4.50;1.75;;;18.10;34.90;;;;;;5036531;28;20037;-48
2021/04/26 12:40:14;;;;;;;2.63;1.42;;;18.40;34.40;;;;;;5033980;28;20029;-48
2021/04/26 12:42:41;;;;;;;4.15;1.52;;;18.20;34.10;;;;;;5031539;28;20022;-49
2021/04/26 12:45:21;;;;;;;1.73;1.15;;;18.20;35.20;;;;;;5029320;28;20049;-47
2021/04/26 12:47:47;;;;;;;;;;;18.50;36.00;;;;;;5031156;28;20128;-48
2021/04/26 12:50:20;;;;;;;2.28;1.20;;;19.10;35.30;;;;;;5029870;28;20414;-47
2021/04/26 12:53:13;;;;;;;5.88;1.50;;;19.40;32.70;;;;;;5028856;28;20382;-46
2021/04/26 12:55:54;;;;;;;3.13;1.27;;;18.70;33.80;;;;;;5031500;28;20021;-49
2021/04/26 12:58:26;;;;;;;2.92;1.40;;;17.80;31.30;;;;;;5029356;28;20056;-47
2021/04/26 13:00:53;;;;;;;10.18;1.80;;;17.00;33.60;;;;;;5029985;28;20025;-49
2021/04/26 13:03:36;;;;;;;3.63;1.38;;;16.70;33.60;;;;;;5031376;28;20022;-46